createdAt,value
2016-10-25T00:03:52.653Z,0
2016-10-25T00:06:33.633Z,0
2016-10-25T00:08:52.317Z,0
2016-10-25T00:09:34.071Z,0
2016-10-25T00:10:15.758Z,0
2016-10-25T00:10:57.528Z,0
2016-10-25T00:11:39.292Z,0
2016-10-25T00:12:21.092Z,0
2016-10-25T00:13:02.736Z,0
2016-10-25T00:13:44.324Z,0
2016-10-25T00:14:26.081Z,0
2016-10-25T00:15:07.660Z,0
2016-10-25T00:15:49.413Z,0
2016-10-25T00:16:31.163Z,0
2016-10-25T00:17:12.933Z,0
2016-10-25T00:17:54.623Z,0
2016-10-25T00:18:36.326Z,0
2016-10-25T00:19:18.065Z,0
2016-10-25T00:19:59.715Z,0
2016-10-25T00:20:41.468Z,0
2016-10-25T00:21:23.080Z,0
2016-10-25T00:22:04.803Z,0
2016-10-25T00:22:46.488Z,0
2016-10-25T00:23:28.241Z,0
2016-10-25T00:24:10.053Z,0
2016-10-25T00:24:51.732Z,0
2016-10-25T00:25:33.491Z,0
2016-10-25T00:26:15.255Z,0
2016-10-25T00:26:57.008Z,0
2016-10-25T00:27:38.745Z,0
2016-10-25T00:28:20.496Z,0
2016-10-25T00:29:02.153Z,0
2016-10-25T00:29:43.915Z,0
2016-10-25T00:30:25.708Z,0
2016-10-25T00:31:07.459Z,0
2016-10-25T00:31:49.176Z,0
2016-10-25T00:32:30.994Z,0
2016-10-25T00:33:12.572Z,0
2016-10-25T00:33:54.291Z,0
2016-10-25T00:34:36.045Z,0
2016-10-25T00:35:17.784Z,0
2016-10-25T00:35:59.437Z,0
2016-10-25T00:36:41.082Z,0
2016-10-25T00:37:22.824Z,0
2016-10-25T00:38:04.556Z,0
2016-10-25T00:38:46.109Z,0
2016-10-25T00:39:27.778Z,0
2016-10-25T00:40:09.412Z,0
2016-10-25T00:40:51.103Z,0
2016-10-25T00:41:32.728Z,0
2016-10-25T00:42:14.546Z,0
2016-10-25T00:42:56.329Z,0
2016-10-25T00:43:37.982Z,0
2016-10-25T00:44:19.688Z,0
2016-10-25T00:45:01.447Z,0
2016-10-25T00:45:43.183Z,0
2016-10-25T00:46:24.836Z,0
2016-10-25T00:47:06.590Z,0
2016-10-25T00:47:48.342Z,0
2016-10-25T00:48:30.481Z,0
2016-10-25T00:49:12.242Z,0
2016-10-25T00:49:53.972Z,0
2016-10-25T00:50:35.735Z,0
2016-10-25T00:51:17.452Z,0
2016-10-25T00:51:59.215Z,0
2016-10-25T00:52:40.913Z,0
2016-10-25T00:53:22.642Z,0
2016-10-25T00:54:04.391Z,0
2016-10-25T00:54:46.132Z,0
2016-10-25T00:55:27.889Z,0
2016-10-25T00:56:09.588Z,0
2016-10-25T00:56:51.298Z,0
2016-10-25T00:57:33.121Z,0
2016-10-25T00:58:13.782Z,0
2016-10-25T00:58:54.272Z,0
2016-10-25T00:59:34.763Z,0
2016-10-25T01:00:15.290Z,0
2016-10-25T01:00:55.777Z,0
2016-10-25T01:01:36.269Z,0
2016-10-25T01:02:16.765Z,0
2016-10-25T01:02:57.253Z,0
2016-10-25T01:03:37.744Z,0
2016-10-25T01:04:18.231Z,0
2016-10-25T01:04:58.746Z,0
2016-10-25T01:05:39.249Z,0
2016-10-25T01:06:19.763Z,0
2016-10-25T01:07:00.235Z,0
2016-10-25T01:07:40.773Z,0
2016-10-25T01:08:21.225Z,0
2016-10-25T01:09:01.753Z,0
2016-10-25T01:09:42.224Z,0
2016-10-25T01:10:22.714Z,0
2016-10-25T01:11:03.215Z,0
2016-10-25T01:11:43.709Z,0
2016-10-25T01:12:24.193Z,0
2016-10-25T01:13:06.642Z,0
2016-10-25T01:13:47.138Z,0
2016-10-25T01:14:27.647Z,0
2016-10-25T01:15:08.173Z,0
2016-10-25T01:15:48.625Z,0
2016-10-25T01:16:29.132Z,0
2016-10-25T01:17:09.632Z,0
2016-10-25T01:17:50.159Z,0
2016-10-25T01:18:30.616Z,0
2016-10-25T01:19:11.111Z,0
2016-10-25T01:19:51.605Z,0
2016-10-25T01:20:32.124Z,0
2016-10-25T01:21:12.627Z,0
2016-10-25T01:21:53.124Z,0
2016-10-25T01:22:33.628Z,0
2016-10-25T01:23:14.140Z,0
2016-10-25T01:23:54.645Z,0
2016-10-25T01:24:35.146Z,0
2016-10-25T01:25:15.662Z,0
2016-10-25T01:25:56.151Z,0
2016-10-25T01:26:36.650Z,0
2016-10-25T01:27:17.159Z,0
2016-10-25T01:27:57.669Z,0
2016-10-25T01:28:38.158Z,0
2016-10-25T01:29:18.703Z,0
2016-10-25T01:29:59.211Z,0
2016-10-25T01:30:39.696Z,0
2016-10-25T01:31:20.246Z,0
2016-10-25T01:32:00.690Z,0
2016-10-25T01:32:41.197Z,0
2016-10-25T01:33:21.701Z,0
2016-10-25T01:34:02.207Z,0
2016-10-25T01:34:42.707Z,0
2016-10-25T01:35:23.234Z,0
2016-10-25T01:36:03.721Z,0
2016-10-25T01:36:44.245Z,0
2016-10-25T01:37:24.771Z,0
2016-10-25T01:38:05.236Z,0
2016-10-25T01:38:45.773Z,0
2016-10-25T01:39:26.264Z,0
2016-10-25T01:40:06.763Z,0
2016-10-25T01:40:47.293Z,0
2016-10-25T01:41:27.778Z,0
2016-10-25T01:42:08.278Z,0
2016-10-25T01:42:48.792Z,0
2016-10-25T01:43:29.333Z,0
2016-10-25T01:44:09.813Z,0
2016-10-25T01:44:50.324Z,0
2016-10-25T01:45:30.827Z,0
2016-10-25T01:46:11.335Z,0
2016-10-25T01:46:51.830Z,0
2016-10-25T01:47:32.320Z,0
2016-10-25T01:48:12.835Z,0
2016-10-25T01:48:53.322Z,0
2016-10-25T01:49:33.835Z,0
2016-10-25T01:50:14.357Z,0
2016-10-25T01:50:54.875Z,0
2016-10-25T01:51:35.392Z,0
2016-10-25T01:52:15.917Z,0
2016-10-25T01:52:56.413Z,0
2016-10-25T01:53:36.914Z,0
2016-10-25T01:54:17.413Z,0
2016-10-25T01:54:58.045Z,0
2016-10-25T01:55:38.554Z,0
2016-10-25T01:56:19.043Z,0
2016-10-25T01:56:59.566Z,0
2016-10-25T01:57:40.084Z,0
2016-10-25T01:58:20.602Z,0
2016-10-25T01:59:01.185Z,0
2016-10-25T01:59:41.720Z,0
2016-10-25T02:00:22.201Z,0
2016-10-25T02:01:02.762Z,0
2016-10-25T02:01:43.292Z,0
2016-10-25T02:02:23.770Z,0
2016-10-25T02:03:04.284Z,0
2016-10-25T02:03:44.789Z,0
2016-10-25T02:04:25.269Z,0
2016-10-25T02:05:05.781Z,0
2016-10-25T02:05:46.283Z,0
2016-10-25T02:06:26.787Z,0
2016-10-25T02:07:07.313Z,0
2016-10-25T02:07:47.762Z,0
2016-10-25T02:08:28.329Z,0
2016-10-25T02:09:08.791Z,0
2016-10-25T02:09:49.358Z,0
2016-10-25T02:10:29.821Z,0
2016-10-25T02:11:10.384Z,0
2016-10-25T02:11:50.908Z,0
2016-10-25T02:12:31.369Z,0
2016-10-25T02:13:11.855Z,0
2016-10-25T02:13:52.390Z,0
2016-10-25T02:14:32.884Z,0
2016-10-25T02:15:13.399Z,0
2016-10-25T02:15:53.970Z,0
2016-10-25T02:16:34.499Z,0
2016-10-25T02:17:14.963Z,0
2016-10-25T02:17:55.450Z,0
2016-10-25T02:18:35.962Z,0
2016-10-25T02:19:16.453Z,0
2016-10-25T02:19:56.960Z,0
2016-10-25T02:20:37.474Z,0
2016-10-25T02:21:17.969Z,0
2016-10-25T02:21:58.487Z,0
2016-10-25T02:22:38.986Z,0
2016-10-25T02:23:19.500Z,0
2016-10-25T02:24:00.050Z,0
2016-10-25T02:24:40.513Z,0
2016-10-25T02:25:21.033Z,0
2016-10-25T02:26:01.500Z,0
2016-10-25T02:26:42.092Z,0
2016-10-25T02:27:22.678Z,0
2016-10-25T02:28:03.204Z,0
2016-10-25T02:28:43.703Z,0
2016-10-25T02:29:24.205Z,0
2016-10-25T02:30:04.715Z,0
2016-10-25T02:30:45.233Z,0
2016-10-25T02:31:25.729Z,0
2016-10-25T02:32:06.247Z,0
2016-10-25T02:32:46.745Z,0
2016-10-25T02:33:27.253Z,0
2016-10-25T02:34:07.760Z,0
2016-10-25T02:34:48.248Z,0
2016-10-25T02:35:28.735Z,0
2016-10-25T02:36:09.255Z,0
2016-10-25T02:36:49.761Z,0
2016-10-25T02:37:30.278Z,0
2016-10-25T02:38:10.814Z,0
2016-10-25T02:38:51.332Z,0
2016-10-25T02:39:31.807Z,0
2016-10-25T02:40:12.322Z,0
2016-10-25T02:40:52.828Z,0
2016-10-25T02:41:33.338Z,0
2016-10-25T02:42:13.842Z,0
2016-10-25T02:42:54.346Z,0
2016-10-25T02:43:34.881Z,0
2016-10-25T02:44:15.344Z,0
2016-10-25T02:44:55.913Z,0
2016-10-25T02:45:36.428Z,0
2016-10-25T02:46:16.950Z,0
2016-10-25T02:46:57.435Z,0
2016-10-25T02:47:37.936Z,0
2016-10-25T02:48:18.478Z,0
2016-10-25T02:48:58.995Z,0
2016-10-25T02:49:39.554Z,0
2016-10-25T02:50:20.023Z,0
2016-10-25T02:51:00.518Z,0
2016-10-25T02:51:41.023Z,0
2016-10-25T02:52:21.532Z,0
2016-10-25T02:53:02.047Z,0
2016-10-25T02:53:42.675Z,0
2016-10-25T02:54:23.124Z,0
2016-10-25T02:55:03.660Z,0
2016-10-25T02:55:44.169Z,0
2016-10-25T02:56:24.686Z,0
2016-10-25T02:57:05.189Z,0
2016-10-25T02:57:45.690Z,0
2016-10-25T02:58:26.223Z,0
2016-10-25T02:59:06.763Z,0
2016-10-25T02:59:47.283Z,0
2016-10-25T03:00:27.782Z,0
2016-10-25T03:01:08.321Z,0
2016-10-25T03:01:48.829Z,0
2016-10-25T03:02:29.393Z,0
2016-10-25T03:03:09.843Z,0
2016-10-25T03:03:50.335Z,0
2016-10-25T03:04:30.876Z,0
2016-10-25T03:05:11.376Z,0
2016-10-25T03:05:51.848Z,0
2016-10-25T03:06:32.379Z,0
2016-10-25T03:07:12.863Z,0
2016-10-25T03:07:53.406Z,0
2016-10-25T03:08:33.925Z,0
2016-10-25T03:09:14.517Z,0
2016-10-25T03:09:55.022Z,0
2016-10-25T03:10:35.521Z,0
2016-10-25T03:11:16.034Z,0
2016-10-25T03:11:56.536Z,0
2016-10-25T03:12:37.042Z,0
2016-10-25T03:13:17.595Z,0
2016-10-25T03:13:58.111Z,0
2016-10-25T03:14:38.610Z,0
2016-10-25T03:15:19.111Z,0
2016-10-25T03:15:59.622Z,0
2016-10-25T03:16:40.157Z,0
2016-10-25T03:17:20.663Z,0
2016-10-25T03:18:01.167Z,0
2016-10-25T03:18:41.687Z,0
2016-10-25T03:19:22.250Z,0
2016-10-25T03:20:02.703Z,0
2016-10-25T03:20:43.204Z,0
2016-10-25T03:21:23.690Z,0
2016-10-25T03:22:04.206Z,0
2016-10-25T03:22:44.721Z,0
2016-10-25T03:23:25.239Z,0
2016-10-25T03:24:05.734Z,0
2016-10-25T03:24:46.243Z,0
2016-10-25T03:25:26.773Z,0
2016-10-25T03:26:07.287Z,0
2016-10-25T03:26:47.837Z,0
2016-10-25T03:27:28.326Z,0
2016-10-25T03:28:08.794Z,0
2016-10-25T03:28:49.352Z,0
2016-10-25T03:29:29.860Z,0
2016-10-25T03:30:10.362Z,0
2016-10-25T03:30:50.870Z,0
2016-10-25T03:31:31.404Z,0
2016-10-25T03:32:11.900Z,0
2016-10-25T03:32:52.455Z,0
2016-10-25T03:33:32.959Z,0
2016-10-25T03:34:13.502Z,0
2016-10-25T03:34:54.030Z,0
2016-10-25T03:35:34.584Z,0
2016-10-25T03:36:15.054Z,0
2016-10-25T03:36:55.584Z,0
2016-10-25T03:37:36.075Z,0
2016-10-25T03:38:16.597Z,0
2016-10-25T03:38:57.096Z,0
2016-10-25T03:39:37.621Z,0
2016-10-25T03:40:18.130Z,0
2016-10-25T03:40:58.649Z,0
2016-10-25T03:41:39.198Z,0
2016-10-25T03:42:19.670Z,0
2016-10-25T03:43:00.176Z,0
2016-10-25T03:43:40.679Z,0
2016-10-25T03:44:21.228Z,0
2016-10-25T03:45:01.720Z,0
2016-10-25T03:45:42.217Z,0
2016-10-25T03:46:22.738Z,0
2016-10-25T03:47:03.248Z,0
2016-10-25T03:47:43.740Z,0
2016-10-25T03:48:24.257Z,0
2016-10-25T03:49:04.750Z,0
2016-10-25T03:49:45.272Z,0
2016-10-25T03:50:25.745Z,0
2016-10-25T03:51:06.267Z,0
2016-10-25T03:51:46.815Z,0
2016-10-25T03:52:27.319Z,0
2016-10-25T03:53:07.899Z,0
2016-10-25T03:53:48.397Z,0
2016-10-25T03:54:28.879Z,0
2016-10-25T03:55:09.392Z,0
2016-10-25T03:55:49.906Z,0
2016-10-25T03:56:30.428Z,0
2016-10-25T03:57:10.967Z,0
2016-10-25T03:57:51.487Z,0
2016-10-25T03:58:32.037Z,0
2016-10-25T03:59:12.551Z,0
2016-10-25T03:59:53.059Z,0
2016-10-25T04:00:33.584Z,0
2016-10-25T04:01:14.115Z,0
2016-10-25T04:01:54.624Z,0
2016-10-25T04:02:35.125Z,0
2016-10-25T04:03:15.615Z,0
2016-10-25T04:03:56.118Z,0
2016-10-25T04:04:36.658Z,0
2016-10-25T04:05:17.132Z,0
2016-10-25T04:05:57.662Z,0
2016-10-25T04:06:38.153Z,0
2016-10-25T04:07:18.662Z,0
2016-10-25T04:07:59.247Z,0
2016-10-25T04:08:39.747Z,0
2016-10-25T04:09:20.294Z,0
2016-10-25T04:10:00.831Z,0
2016-10-25T04:10:41.323Z,0
2016-10-25T04:11:21.845Z,0
2016-10-25T04:12:02.351Z,0
2016-10-25T04:12:42.886Z,0
2016-10-25T04:13:23.374Z,0
2016-10-25T04:14:03.939Z,0
2016-10-25T04:14:44.450Z,0
2016-10-25T04:15:24.929Z,0
2016-10-25T04:16:05.450Z,0
2016-10-25T04:16:45.965Z,0
2016-10-25T04:17:26.443Z,0
2016-10-25T04:18:06.968Z,0
2016-10-25T04:18:47.485Z,0
2016-10-25T04:19:28.011Z,0
2016-10-25T04:20:08.515Z,0
2016-10-25T04:20:49.003Z,0
2016-10-25T04:21:29.514Z,0
2016-10-25T04:22:10.017Z,0
2016-10-25T04:22:50.538Z,0
2016-10-25T04:23:31.272Z,0
2016-10-25T04:24:12.878Z,0
2016-10-25T04:24:53.416Z,0
2016-10-25T04:25:34.983Z,0
2016-10-25T04:26:15.520Z,0
2016-10-25T04:26:56.043Z,0
2016-10-25T04:27:36.573Z,0
2016-10-25T04:28:17.133Z,0
2016-10-25T04:28:57.606Z,0
2016-10-25T04:29:38.201Z,0
2016-10-25T04:30:18.715Z,0
2016-10-25T04:30:59.497Z,0
2016-10-25T04:31:39.929Z,0
2016-10-25T04:32:20.441Z,0
2016-10-25T04:33:01.245Z,0
2016-10-25T04:33:41.519Z,0
2016-10-25T04:34:22.021Z,0
2016-10-25T04:35:02.521Z,0
2016-10-25T04:35:43.043Z,0
2016-10-25T04:36:23.533Z,0
2016-10-25T04:37:04.788Z,0
2016-10-25T04:37:45.312Z,0
2016-10-25T04:38:25.804Z,0
2016-10-25T04:39:06.311Z,0
2016-10-25T04:39:47.556Z,0
2016-10-25T04:40:28.137Z,0
2016-10-25T04:41:08.636Z,0
2016-10-25T04:41:49.135Z,0
2016-10-25T04:42:29.761Z,0
2016-10-25T04:43:10.276Z,0
2016-10-25T04:43:50.777Z,0
2016-10-25T04:44:31.270Z,0
2016-10-25T04:45:11.797Z,0
2016-10-25T04:45:52.318Z,0
2016-10-25T04:46:32.804Z,0
2016-10-25T04:47:13.322Z,0
2016-10-25T04:47:53.875Z,0
2016-10-25T04:48:34.375Z,0
2016-10-25T04:49:14.881Z,0
2016-10-25T04:49:55.365Z,0
2016-10-25T04:50:35.866Z,0
2016-10-25T04:51:16.370Z,0
2016-10-25T04:51:56.878Z,0
2016-10-25T04:52:37.396Z,0
2016-10-25T04:53:17.935Z,0
2016-10-25T04:53:58.459Z,0
2016-10-25T04:54:38.956Z,0
2016-10-25T04:55:19.458Z,0
2016-10-25T04:55:59.949Z,0
2016-10-25T04:56:40.468Z,0
2016-10-25T04:57:20.991Z,0
2016-10-25T04:58:01.517Z,0
2016-10-25T04:58:42.025Z,0
2016-10-25T04:59:22.544Z,0
2016-10-25T05:00:04.104Z,0
2016-10-25T05:00:44.607Z,0
2016-10-25T05:01:25.114Z,0
2016-10-25T05:02:05.621Z,0
2016-10-25T05:02:46.130Z,0
2016-10-25T05:03:26.644Z,0
2016-10-25T05:04:07.156Z,0
2016-10-25T05:04:49.187Z,0
2016-10-25T05:05:29.714Z,0
2016-10-25T05:06:11.812Z,0
2016-10-25T05:06:52.558Z,0
2016-10-25T05:07:33.084Z,0
2016-10-25T05:08:17.505Z,0
2016-10-25T05:08:58.027Z,0
2016-10-25T05:09:38.543Z,0
2016-10-25T05:10:19.065Z,0
2016-10-25T05:10:59.574Z,0
2016-10-25T05:11:40.076Z,0
2016-10-25T05:12:20.596Z,0
2016-10-25T05:13:01.156Z,0
2016-10-25T05:13:41.661Z,0
2016-10-25T05:14:22.194Z,0
2016-10-25T05:15:02.675Z,0
2016-10-25T05:15:43.155Z,0
2016-10-25T05:16:23.648Z,0
2016-10-25T05:17:04.163Z,0
2016-10-25T05:17:44.659Z,0
2016-10-25T05:18:25.149Z,0
2016-10-25T05:19:05.671Z,0
2016-10-25T05:19:46.147Z,0
2016-10-25T05:20:26.650Z,0
2016-10-25T05:21:07.143Z,0
2016-10-25T05:21:47.670Z,0
2016-10-25T05:22:28.167Z,0
2016-10-25T05:23:08.683Z,0
2016-10-25T05:23:49.172Z,0
2016-10-25T05:24:29.685Z,0
2016-10-25T05:25:10.175Z,0
2016-10-25T05:25:50.679Z,0
2016-10-25T05:26:31.163Z,0
2016-10-25T05:27:11.663Z,0
2016-10-25T05:27:52.176Z,0
2016-10-25T05:28:32.658Z,0
2016-10-25T05:29:13.167Z,0
2016-10-25T05:29:53.657Z,0
2016-10-25T05:30:34.142Z,0
2016-10-25T05:31:14.653Z,0
2016-10-25T05:31:55.209Z,0
2016-10-25T05:32:35.705Z,0
2016-10-25T05:33:16.194Z,0
2016-10-25T05:33:56.696Z,0
2016-10-25T05:34:37.194Z,0
2016-10-25T05:35:17.678Z,0
2016-10-25T05:35:58.203Z,0
2016-10-25T05:36:38.933Z,0
2016-10-25T05:37:19.501Z,0
2016-10-25T05:37:59.983Z,0
2016-10-25T05:38:40.483Z,0
2016-10-25T05:39:21.221Z,0
2016-10-25T05:40:01.767Z,0
2016-10-25T05:40:42.310Z,0
2016-10-25T05:41:22.837Z,0
2016-10-25T05:42:03.511Z,0
2016-10-25T05:42:44.039Z,0
2016-10-25T05:43:24.732Z,0
2016-10-25T05:44:05.272Z,0
2016-10-25T05:44:45.810Z,0
2016-10-25T05:45:26.344Z,0
2016-10-25T05:46:07.893Z,0
2016-10-25T05:46:48.427Z,0
2016-10-25T05:47:28.959Z,0
2016-10-25T05:51:22.258Z,0
2016-10-25T05:52:04.605Z,0
2016-10-25T05:52:45.118Z,0
2016-10-25T05:53:25.659Z,0
2016-10-25T05:54:06.176Z,0
2016-10-25T05:54:46.670Z,0
2016-10-25T05:55:27.211Z,0
2016-10-25T05:56:07.712Z,0
2016-10-25T05:56:48.239Z,0
2016-10-25T05:57:28.761Z,0
2016-10-25T05:58:09.276Z,0
2016-10-25T05:58:51.647Z,0
2016-10-25T05:59:32.170Z,0
2016-10-25T06:00:12.722Z,0
2016-10-25T06:00:53.245Z,0
2016-10-25T06:01:33.764Z,0
2016-10-25T06:02:14.304Z,0
2016-10-25T06:02:55.752Z,0
2016-10-25T06:03:36.299Z,0
2016-10-25T06:04:16.833Z,0
2016-10-25T06:04:57.341Z,0
2016-10-25T06:05:37.882Z,0
2016-10-25T06:06:18.406Z,0
2016-10-25T06:06:58.938Z,0
2016-10-25T06:07:39.484Z,0
2016-10-25T06:08:19.991Z,0
2016-10-25T06:09:00.505Z,0
2016-10-25T06:09:41.050Z,0
2016-10-25T06:10:21.596Z,0
2016-10-25T06:11:02.134Z,0
2016-10-25T06:11:42.631Z,0
2016-10-25T06:12:23.160Z,0
2016-10-25T06:13:03.696Z,0
2016-10-25T06:13:44.236Z,0
2016-10-25T06:14:24.753Z,0
2016-10-25T06:15:05.303Z,0
2016-10-25T06:15:45.815Z,0
2016-10-25T06:16:26.377Z,0
2016-10-25T06:17:06.926Z,0
2016-10-25T06:17:47.452Z,0
2016-10-25T06:18:27.980Z,0
2016-10-25T06:19:08.521Z,0
2016-10-25T06:19:49.057Z,0
2016-10-25T06:20:29.598Z,0
2016-10-25T06:21:10.128Z,0
2016-10-25T06:21:50.652Z,0
2016-10-25T06:22:31.231Z,0
2016-10-25T06:23:11.761Z,0
2016-10-25T06:23:52.308Z,0
2016-10-25T06:24:32.844Z,0
2016-10-25T06:25:13.363Z,5
2016-10-25T06:25:53.885Z,5
2016-10-25T06:26:34.387Z,5
2016-10-25T06:27:14.907Z,5
2016-10-25T06:27:55.420Z,5
2016-10-25T06:28:35.974Z,5
2016-10-25T06:29:16.511Z,5
2016-10-25T06:29:57.029Z,5
2016-10-25T06:30:37.550Z,5
2016-10-25T06:31:18.080Z,5
2016-10-25T06:31:58.605Z,5
2016-10-25T06:32:39.151Z,5
2016-10-25T06:33:19.654Z,5
2016-10-25T06:34:00.178Z,5
2016-10-25T06:34:40.706Z,5
2016-10-25T06:35:21.240Z,5
2016-10-25T06:36:01.793Z,5
2016-10-25T06:36:42.315Z,5
2016-10-25T06:37:22.847Z,10
2016-10-25T06:38:03.370Z,10
2016-10-25T06:38:43.884Z,10
2016-10-25T06:39:24.398Z,10
2016-10-25T06:40:04.921Z,10
2016-10-25T06:40:45.472Z,10
2016-10-25T06:41:26.002Z,5
2016-10-25T06:42:06.538Z,10
2016-10-25T06:42:47.042Z,5
2016-10-25T06:43:27.586Z,10
2016-10-25T06:44:08.110Z,10
2016-10-25T06:44:48.651Z,10
2016-10-25T06:45:29.164Z,10
2016-10-25T06:46:09.687Z,10
2016-10-25T06:46:50.205Z,10
2016-10-25T06:47:30.762Z,10
2016-10-25T06:48:11.311Z,15
2016-10-25T06:48:51.843Z,15
2016-10-25T06:49:32.376Z,15
2016-10-25T06:50:12.905Z,20
2016-10-25T06:50:53.419Z,20
2016-10-25T06:51:33.948Z,20
2016-10-25T06:52:14.494Z,20
2016-10-25T06:52:54.992Z,20
2016-10-25T06:53:37.019Z,20
2016-10-25T06:54:17.611Z,15
2016-10-25T06:54:58.158Z,15
2016-10-25T06:55:38.703Z,20
2016-10-25T06:56:19.239Z,25
2016-10-25T06:56:59.738Z,25
2016-10-25T06:57:40.295Z,20
2016-10-25T06:58:20.830Z,15
2016-10-25T06:59:01.404Z,15
2016-10-25T06:59:41.988Z,15
2016-10-25T07:00:22.561Z,20
2016-10-25T07:01:04.756Z,20
2016-10-25T07:01:45.265Z,25
2016-10-25T07:02:25.839Z,30
2016-10-25T07:03:10.954Z,25
2016-10-25T07:03:51.524Z,35
2016-10-25T07:04:33.798Z,35
2016-10-25T07:05:14.324Z,35
2016-10-25T07:05:54.858Z,35
2016-10-25T07:06:35.373Z,35
2016-10-25T07:07:15.893Z,30
2016-10-25T07:07:56.525Z,25
2016-10-25T07:08:37.049Z,25
2016-10-25T07:09:17.585Z,20
2016-10-25T07:09:58.099Z,20
2016-10-25T07:10:38.633Z,20
2016-10-25T07:11:19.151Z,15
2016-10-25T07:11:59.711Z,15
2016-10-25T07:12:41.230Z,15
2016-10-25T07:13:21.764Z,15
2016-10-25T07:14:02.276Z,20
2016-10-25T07:14:42.823Z,20
2016-10-25T07:15:23.356Z,20
2016-10-25T07:16:03.974Z,15
2016-10-25T07:16:46.265Z,15
2016-10-25T07:17:26.810Z,15
2016-10-25T07:18:07.367Z,15
2016-10-25T07:18:47.995Z,15
2016-10-25T07:19:28.502Z,20
2016-10-25T07:20:09.030Z,25
2016-10-25T07:20:49.531Z,20
2016-10-25T07:21:30.258Z,20
2016-10-25T07:22:10.765Z,25
2016-10-25T07:22:51.292Z,25
2016-10-25T07:23:31.822Z,25
2016-10-25T07:24:12.368Z,20
2016-10-25T07:24:52.917Z,20
2016-10-25T07:25:33.429Z,15
2016-10-25T07:26:13.966Z,15
2016-10-25T07:26:54.500Z,15
2016-10-25T07:27:35.040Z,15
2016-10-25T07:28:15.551Z,15
2016-10-25T07:28:56.080Z,10
2016-10-25T07:29:36.589Z,10
2016-10-25T07:30:17.132Z,10
2016-10-25T07:30:57.664Z,15
2016-10-25T07:31:38.190Z,15
2016-10-25T07:32:18.730Z,15
2016-10-25T07:32:59.261Z,20
2016-10-25T07:33:39.783Z,25
2016-10-25T07:34:20.335Z,25
2016-10-25T07:35:00.843Z,25
2016-10-25T07:35:41.372Z,20
2016-10-25T07:36:21.908Z,20
2016-10-25T07:37:02.443Z,20
2016-10-25T07:37:42.993Z,20
2016-10-25T07:38:23.531Z,25
2016-10-25T07:39:04.070Z,25
2016-10-25T07:39:44.583Z,25
2016-10-25T07:40:25.092Z,30
2016-10-25T07:41:05.631Z,30
2016-10-25T07:41:46.158Z,30
2016-10-25T07:42:26.680Z,35
2016-10-25T07:43:07.204Z,35
2016-10-25T07:43:47.753Z,35
2016-10-25T07:44:28.270Z,35
2016-10-25T07:45:08.805Z,30
2016-10-25T07:45:49.332Z,30
2016-10-25T07:46:29.861Z,30
2016-10-25T07:47:10.391Z,30
2016-10-25T07:47:50.935Z,35
2016-10-25T07:48:31.440Z,40
2016-10-25T07:49:11.979Z,45
2016-10-25T07:49:52.500Z,45
2016-10-25T07:50:33.045Z,45
2016-10-25T07:51:13.589Z,45
2016-10-25T07:51:54.122Z,40
2016-10-25T07:52:34.674Z,40
2016-10-25T07:53:15.187Z,40
2016-10-25T07:53:55.718Z,40
2016-10-25T07:54:36.251Z,40
2016-10-25T07:55:16.787Z,35
2016-10-25T07:55:57.300Z,35
2016-10-25T07:56:37.821Z,30
2016-10-25T07:57:18.370Z,30
2016-10-25T07:57:58.909Z,30
2016-10-25T07:58:39.435Z,30
2016-10-25T07:59:19.960Z,30
2016-10-25T08:00:00.457Z,35
2016-10-25T08:00:41.020Z,30
2016-10-25T08:01:21.559Z,25
2016-10-25T08:02:02.109Z,35
2016-10-25T08:02:42.633Z,35
2016-10-25T08:03:23.164Z,40
2016-10-25T08:04:03.688Z,35
2016-10-25T08:04:44.223Z,40
2016-10-25T08:05:24.765Z,40
2016-10-25T08:06:05.283Z,40
2016-10-25T08:06:45.791Z,40
2016-10-25T08:07:26.322Z,40
2016-10-25T08:08:06.854Z,40
2016-10-25T08:08:47.371Z,35
2016-10-25T08:09:27.889Z,35
2016-10-25T08:10:08.432Z,35
2016-10-25T08:10:48.957Z,35
2016-10-25T08:11:29.484Z,35
2016-10-25T08:12:10.008Z,35
2016-10-25T08:12:50.532Z,40
2016-10-25T08:13:31.059Z,45
2016-10-25T08:14:11.615Z,50
2016-10-25T08:14:52.149Z,45
2016-10-25T08:15:32.656Z,40
2016-10-25T08:16:13.167Z,35
2016-10-25T08:16:53.711Z,40
2016-10-25T08:17:34.243Z,40
2016-10-25T08:18:14.754Z,40
2016-10-25T08:18:55.279Z,40
2016-10-25T08:19:35.795Z,40
2016-10-25T08:20:16.313Z,40
2016-10-25T08:20:56.828Z,40
2016-10-25T08:21:37.362Z,40
2016-10-25T08:22:17.908Z,45
2016-10-25T08:22:58.409Z,40
2016-10-25T08:23:38.943Z,40
2016-10-25T08:24:19.474Z,45
2016-10-25T08:25:00.025Z,45
2016-10-25T08:25:40.565Z,45
2016-10-25T08:26:21.118Z,40
2016-10-25T08:27:01.644Z,40
2016-10-25T08:27:42.158Z,45
2016-10-25T08:28:22.671Z,50
2016-10-25T08:29:03.216Z,50
2016-10-25T08:29:43.733Z,60
2016-10-25T08:30:24.332Z,55
2016-10-25T08:31:04.879Z,45
2016-10-25T08:31:45.404Z,45
2016-10-25T08:32:25.958Z,45
2016-10-25T08:33:06.462Z,45
2016-10-25T08:33:47.003Z,45
2016-10-25T08:34:27.526Z,45
2016-10-25T08:35:08.075Z,45
2016-10-25T08:35:48.609Z,50
2016-10-25T08:36:29.118Z,60
2016-10-25T08:37:09.632Z,65
2016-10-25T08:37:50.183Z,70
2016-10-25T08:38:30.715Z,70
2016-10-25T08:39:11.208Z,70
2016-10-25T08:39:51.736Z,75
2016-10-25T08:40:32.282Z,70
2016-10-25T08:41:12.820Z,65
2016-10-25T08:41:53.332Z,65
2016-10-25T08:42:33.839Z,65
2016-10-25T08:43:14.361Z,65
2016-10-25T08:43:54.884Z,65
2016-10-25T08:44:35.408Z,70
2016-10-25T08:45:15.925Z,75
2016-10-25T08:45:56.482Z,70
2016-10-25T08:46:37.019Z,70
2016-10-25T08:47:17.537Z,75
2016-10-25T08:47:58.061Z,75
2016-10-25T08:48:38.581Z,65
2016-10-25T08:49:19.127Z,60
2016-10-25T08:49:59.627Z,60
2016-10-25T08:50:40.162Z,65
2016-10-25T08:51:20.684Z,65
2016-10-25T08:52:01.217Z,70
2016-10-25T08:52:41.734Z,65
2016-10-25T08:53:22.260Z,65
2016-10-25T08:54:02.781Z,70
2016-10-25T08:54:43.325Z,70
2016-10-25T08:55:23.864Z,65
2016-10-25T08:56:04.404Z,60
2016-10-25T08:56:44.917Z,60
2016-10-25T08:57:25.433Z,60
2016-10-25T08:58:05.969Z,60
2016-10-25T08:58:46.454Z,60
2016-10-25T08:59:26.981Z,60
2016-10-25T09:00:07.524Z,60
2016-10-25T09:00:48.034Z,55
2016-10-25T09:01:28.560Z,55
2016-10-25T09:02:09.089Z,55
2016-10-25T09:02:49.640Z,50
2016-10-25T09:03:30.169Z,55
2016-10-25T09:04:10.678Z,55
2016-10-25T09:04:51.190Z,60
2016-10-25T09:05:31.718Z,65
2016-10-25T09:06:12.226Z,65
2016-10-25T09:06:52.755Z,65
2016-10-25T09:07:33.273Z,70
2016-10-25T09:08:13.820Z,75
2016-10-25T09:08:54.342Z,75
2016-10-25T09:09:34.864Z,75
2016-10-25T09:10:15.393Z,80
2016-10-25T09:10:55.917Z,95
2016-10-25T09:11:36.431Z,115
2016-10-25T09:12:16.951Z,125
2016-10-25T09:12:57.466Z,125
2016-10-25T09:13:37.999Z,130
2016-10-25T09:14:18.515Z,135
2016-10-25T09:14:59.048Z,140
2016-10-25T09:15:39.590Z,150
2016-10-25T09:16:20.131Z,160
2016-10-25T09:17:00.665Z,170
2016-10-25T09:17:41.173Z,175
2016-10-25T09:18:21.688Z,180
2016-10-25T09:19:02.242Z,180
2016-10-25T09:19:42.765Z,190
2016-10-25T09:20:23.298Z,200
2016-10-25T09:21:03.819Z,210
2016-10-25T09:21:44.352Z,210
2016-10-25T09:22:24.873Z,205
2016-10-25T09:23:05.406Z,200
2016-10-25T09:23:45.928Z,200
2016-10-25T09:24:26.445Z,195
2016-10-25T09:25:06.983Z,190
2016-10-25T09:25:47.516Z,190
2016-10-25T09:26:28.062Z,190
2016-10-25T09:27:08.570Z,185
2016-10-25T09:27:49.099Z,180
2016-10-25T09:28:29.634Z,170
2016-10-25T09:29:10.178Z,185
2016-10-25T09:29:50.692Z,175
2016-10-25T09:30:31.219Z,170
2016-10-25T09:31:11.747Z,165
2016-10-25T09:31:52.281Z,170
2016-10-25T09:32:32.800Z,175
2016-10-25T09:33:13.318Z,165
2016-10-25T09:33:53.840Z,135
2016-10-25T09:34:34.358Z,120
2016-10-25T09:35:14.869Z,115
2016-10-25T09:35:55.412Z,100
2016-10-25T09:36:35.924Z,95
2016-10-25T09:37:16.422Z,100
2016-10-25T09:37:56.952Z,100
2016-10-25T09:38:37.486Z,90
2016-10-25T09:39:18.000Z,75
2016-10-25T09:39:58.541Z,65
2016-10-25T09:40:39.063Z,60
2016-10-25T09:41:19.577Z,65
2016-10-25T09:42:00.097Z,75
2016-10-25T09:42:40.621Z,80
2016-10-25T09:43:21.143Z,90
2016-10-25T09:44:01.707Z,105
2016-10-25T09:44:42.223Z,110
2016-10-25T09:45:22.747Z,130
2016-10-25T09:46:03.263Z,135
2016-10-25T09:46:43.808Z,145
2016-10-25T09:47:24.337Z,155
2016-10-25T09:48:04.864Z,160
2016-10-25T09:48:45.408Z,165
2016-10-25T09:49:25.915Z,175
2016-10-25T09:50:06.434Z,180
2016-10-25T09:50:46.957Z,185
2016-10-25T09:51:27.476Z,180
2016-10-25T09:52:08.004Z,170
2016-10-25T09:52:48.540Z,160
2016-10-25T09:53:29.083Z,165
2016-10-25T09:54:09.588Z,160
2016-10-25T09:54:50.104Z,145
2016-10-25T09:55:30.626Z,145
2016-10-25T09:56:11.185Z,145
2016-10-25T09:56:51.712Z,140
2016-10-25T09:57:32.238Z,125
2016-10-25T09:58:12.761Z,135
2016-10-25T09:58:53.322Z,135
2016-10-25T09:59:33.837Z,130
2016-10-25T10:00:14.331Z,120
2016-10-25T10:00:54.860Z,100
2016-10-25T10:01:35.359Z,100
2016-10-25T10:02:15.859Z,130